N86GM KFTY-KCMH
Flight info
| Callsign | N86GM |
|---|---|
| Flight time | 1h 2m |
| Altitude | 37000 |
| Route | NOTWO VXV |
| Aircraft | CL60/M-SBDE1E2E3FGHIJ4J5J7M3RWXYZ/LB1V1D1 |
Departure
| Time | 2026-05-09 01:09 |
|---|---|
| Airport | Fulton County Airport Brown Field (KFTY) |
Arrival
| Time | 2026-05-09 02:12 |
|---|---|
| Airport | John Glenn Columbus International Airport (KCMH) |
| Time | Latitude | Longitude | Altitude | Speed | Heading |
|---|---|---|---|---|---|
| 2026-05-09 00:46 | 33.77735 | -84.52347 | 822 ft | 0 kts | 118° |
| 2026-05-09 01:04 | 33.77736 | -84.52337 | 822 ft | 7 kts | 56° |
| 2026-05-09 01:05 | 33.77792 | -84.52280 | 822 ft | 11 kts | 62° |
| 2026-05-09 01:05 | 33.77837 | -84.52211 | 822 ft | 12 kts | 356° |
| 2026-05-09 01:05 | 33.77903 | -84.52058 | 823 ft | 13 kts | 79° |
| 2026-05-09 01:06 | 33.77921 | -84.51938 | 823 ft | 16 kts | 79° |
| 2026-05-09 01:06 | 33.77942 | -84.51800 | 823 ft | 15 kts | 79° |
| 2026-05-09 01:06 | 33.77959 | -84.51682 | 822 ft | 14 kts | 79° |
| 2026-05-09 01:06 | 33.77977 | -84.51566 | 821 ft | 14 kts | 79° |
| 2026-05-09 01:07 | 33.77997 | -84.51432 | 819 ft | 17 kts | 80° |
| 2026-05-09 01:07 | 33.78019 | -84.51292 | 818 ft | 18 kts | 78° |
| 2026-05-09 01:07 | 33.78057 | -84.51170 | 816 ft | 13 kts | 50° |
| 2026-05-09 01:07 | 33.78073 | -84.51148 | 815 ft | 0 kts | 46° |
| 2026-05-09 01:08 | 33.78094 | -84.51130 | 815 ft | 10 kts | 10° |
| 2026-05-09 01:09 | 33.78151 | -84.51160 | 814 ft | 5 kts | 258° |
| 2026-05-09 01:09 | 33.78123 | -84.51341 | 816 ft | 61 kts | 259° |
| 2026-05-09 01:09 | 33.77979 | -84.52287 | 838 ft | 160 kts | 257° |
| 2026-05-09 01:09 | 33.77743 | -84.53730 | 1512 ft | 193 kts | 256° |
| 2026-05-09 01:10 | 33.77477 | -84.55338 | 2458 ft | 211 kts | 257° |
| 2026-05-09 01:10 | 33.77217 | -84.57095 | 3145 ft | 213 kts | 259° |
| 2026-05-09 01:10 | 33.77426 | -84.58841 | 3803 ft | 219 kts | 295° |
| 2026-05-09 01:10 | 33.78569 | -84.60162 | 4729 ft | 249 kts | 334° |
| 2026-05-09 01:11 | 33.80204 | -84.60405 | 6407 ft | 250 kts | 5° |
| 2026-05-09 01:11 | 33.81876 | -84.59877 | 7881 ft | 256 kts | 13° |
| 2026-05-09 01:11 | 33.83602 | -84.59171 | 8974 ft | 276 kts | 14° |
| 2026-05-09 01:11 | 33.85463 | -84.58388 | 10000 ft | 296 kts | 14° |
| 2026-05-09 01:12 | 33.87474 | -84.57535 | 10650 ft | 321 kts | 13° |
| 2026-05-09 01:12 | 33.89628 | -84.56615 | 10913 ft | 327 kts | 14° |
| 2026-05-09 01:12 | 33.91760 | -84.55693 | 10983 ft | 326 kts | 14° |
| 2026-05-09 01:12 | 33.93906 | -84.54736 | 10986 ft | 325 kts | 17° |
| 2026-05-09 01:13 | 33.95974 | -84.53641 | 10988 ft | 326 kts | 19° |
| 2026-05-09 01:13 | 33.98051 | -84.52506 | 10991 ft | 326 kts | 19° |
| 2026-05-09 01:13 | 34.00115 | -84.51367 | 10990 ft | 327 kts | 19° |
| 2026-05-09 01:13 | 34.02201 | -84.50223 | 10990 ft | 327 kts | 19° |
| 2026-05-09 01:14 | 34.04263 | -84.49095 | 10989 ft | 326 kts | 19° |
| 2026-05-09 01:14 | 34.06335 | -84.47948 | 10988 ft | 326 kts | 19° |
| 2026-05-09 01:14 | 34.08393 | -84.46809 | 10989 ft | 326 kts | 19° |
| 2026-05-09 01:14 | 34.10471 | -84.45661 | 10993 ft | 327 kts | 19° |
| 2026-05-09 01:15 | 34.12566 | -84.44514 | 10994 ft | 326 kts | 19° |
| 2026-05-09 01:15 | 34.14599 | -84.43349 | 10985 ft | 327 kts | 22° |
| 2026-05-09 01:15 | 34.16624 | -84.42003 | 10987 ft | 329 kts | 24° |
| 2026-05-09 01:15 | 34.18615 | -84.40660 | 10989 ft | 328 kts | 24° |
| 2026-05-09 01:16 | 34.20631 | -84.39308 | 10989 ft | 329 kts | 24° |
| 2026-05-09 01:16 | 34.22629 | -84.37967 | 10985 ft | 329 kts | 24° |
| 2026-05-09 01:16 | 34.24647 | -84.36618 | 10986 ft | 329 kts | 24° |
| 2026-05-09 01:17 | 34.28637 | -84.33945 | 10991 ft | 330 kts | 24° |
| 2026-05-09 01:17 | 34.30716 | -84.32558 | 10984 ft | 341 kts | 24° |
| 2026-05-09 01:17 | 34.32796 | -84.31168 | 10985 ft | 345 kts | 24° |
| 2026-05-09 01:17 | 34.34923 | -84.29749 | 10987 ft | 346 kts | 24° |
| 2026-05-09 01:18 | 34.37034 | -84.28348 | 10992 ft | 347 kts | 24° |
| 2026-05-09 01:18 | 34.39157 | -84.26942 | 10988 ft | 346 kts | 24° |
| 2026-05-09 01:18 | 34.41268 | -84.25539 | 10990 ft | 347 kts | 24° |
| 2026-05-09 01:18 | 34.43415 | -84.24129 | 10986 ft | 346 kts | 22° |
| 2026-05-09 01:19 | 34.45641 | -84.23171 | 10981 ft | 341 kts | 10° |
| 2026-05-09 01:19 | 34.48008 | -84.22533 | 11144 ft | 356 kts | 6° |
| 2026-05-09 01:19 | 34.50429 | -84.21982 | 12562 ft | 354 kts | 5° |
| 2026-05-09 01:19 | 34.52751 | -84.21442 | 14357 ft | 339 kts | 4° |
| 2026-05-09 01:20 | 34.55013 | -84.20923 | 15668 ft | 338 kts | 4° |
| 2026-05-09 01:20 | 34.57345 | -84.20393 | 16737 ft | 344 kts | 4° |
| 2026-05-09 01:20 | 34.59693 | -84.19858 | 17756 ft | 349 kts | 3° |
| 2026-05-09 01:20 | 34.62104 | -84.19308 | 18748 ft | 355 kts | 2° |
| 2026-05-09 01:21 | 34.64516 | -84.18758 | 19702 ft | 360 kts | 1° |
| 2026-05-09 01:21 | 34.66995 | -84.18191 | 20635 ft | 364 kts | 1° |
| 2026-05-09 01:21 | 34.69495 | -84.17621 | 21453 ft | 371 kts | 0° |
| 2026-05-09 01:21 | 34.72037 | -84.17039 | 22357 ft | 374 kts | 360° |
| 2026-05-09 01:22 | 34.74611 | -84.16451 | 23123 ft | 381 kts | 359° |
| 2026-05-09 01:22 | 34.77260 | -84.15846 | 23873 ft | 387 kts | 359° |
| 2026-05-09 01:22 | 34.79977 | -84.15226 | 24494 ft | 397 kts | 358° |
| 2026-05-09 01:22 | 34.82729 | -84.14599 | 25108 ft | 406 kts | 358° |
| 2026-05-09 01:23 | 34.85564 | -84.13947 | 25829 ft | 411 kts | 358° |
| 2026-05-09 01:23 | 34.88383 | -84.13300 | 26447 ft | 417 kts | 357° |
| 2026-05-09 01:23 | 34.91314 | -84.12627 | 27045 ft | 424 kts | 357° |
| 2026-05-09 01:23 | 34.94262 | -84.11950 | 27591 ft | 431 kts | 356° |
| 2026-05-09 01:24 | 34.97331 | -84.11247 | 28063 ft | 440 kts | 356° |
| 2026-05-09 01:24 | 35.00361 | -84.10548 | 28615 ft | 445 kts | 356° |
| 2026-05-09 01:24 | 35.03452 | -84.09831 | 29206 ft | 448 kts | 355° |
| 2026-05-09 01:24 | 35.06546 | -84.09113 | 29814 ft | 451 kts | 355° |
| 2026-05-09 01:25 | 35.09663 | -84.08396 | 30209 ft | 460 kts | 356° |
| 2026-05-09 01:25 | 35.12881 | -84.07655 | 30585 ft | 468 kts | 355° |
| 2026-05-09 01:25 | 35.16091 | -84.06908 | 31144 ft | 469 kts | 355° |
| 2026-05-09 01:25 | 35.19319 | -84.06158 | 31602 ft | 474 kts | 356° |
| 2026-05-09 01:26 | 35.22557 | -84.05410 | 31899 ft | 481 kts | 356° |
| 2026-05-09 01:26 | 35.25861 | -84.04641 | 32345 ft | 484 kts | 356° |
| 2026-05-09 01:26 | 35.29190 | -84.03866 | 32753 ft | 488 kts | 356° |
| 2026-05-09 01:26 | 35.32549 | -84.03084 | 33136 ft | 491 kts | 356° |
| 2026-05-09 01:27 | 35.35930 | -84.02294 | 33529 ft | 494 kts | 356° |
| 2026-05-09 01:27 | 35.39303 | -84.01506 | 33975 ft | 496 kts | 356° |
| 2026-05-09 01:27 | 35.42678 | -84.00717 | 34356 ft | 498 kts | 356° |
| 2026-05-09 01:27 | 35.46107 | -83.99912 | 34880 ft | 497 kts | 356° |
| 2026-05-09 01:28 | 35.49476 | -83.99113 | 35628 ft | 489 kts | 356° |
| 2026-05-09 01:28 | 35.52806 | -83.98328 | 36212 ft | 486 kts | 355° |
| 2026-05-09 01:28 | 35.56103 | -83.97553 | 36690 ft | 484 kts | 355° |
| 2026-05-09 01:28 | 35.59395 | -83.96783 | 36984 ft | 486 kts | 355° |
| 2026-05-09 01:29 | 35.66191 | -83.95204 | 36994 ft | 501 kts | 356° |
| 2026-05-09 01:29 | 35.73148 | -83.93578 | 36994 ft | 513 kts | 356° |
| 2026-05-09 01:30 | 35.80196 | -83.91921 | 36994 ft | 520 kts | 356° |
| 2026-05-09 01:30 | 35.87319 | -83.90236 | 36992 ft | 521 kts | 356° |
| 2026-05-09 01:31 | 35.94437 | -83.88562 | 36992 ft | 519 kts | 356° |
| 2026-05-09 01:31 | 36.01524 | -83.86912 | 36988 ft | 517 kts | 356° |
| 2026-05-09 01:32 | 36.08614 | -83.85261 | 36985 ft | 516 kts | 356° |
| 2026-05-09 01:32 | 36.15691 | -83.83609 | 36986 ft | 515 kts | 356° |
| 2026-05-09 01:33 | 36.22736 | -83.81963 | 36985 ft | 515 kts | 356° |
| 2026-05-09 01:33 | 36.29781 | -83.80316 | 36984 ft | 515 kts | 356° |
| 2026-05-09 01:34 | 36.36805 | -83.78670 | 36987 ft | 514 kts | 356° |
| 2026-05-09 01:34 | 36.43834 | -83.77020 | 36986 ft | 513 kts | 356° |
| 2026-05-09 01:35 | 36.50862 | -83.75367 | 36984 ft | 513 kts | 356° |
| 2026-05-09 01:35 | 36.57896 | -83.73217 | 36987 ft | 534 kts | 7° |
| 2026-05-09 01:36 | 36.64785 | -83.69496 | 36985 ft | 541 kts | 11° |
| 2026-05-09 01:36 | 36.71672 | -83.65683 | 36983 ft | 541 kts | 11° |
| 2026-05-09 01:37 | 36.78420 | -83.61343 | 36985 ft | 558 kts | 22° |
| 2026-05-09 01:37 | 36.84867 | -83.55878 | 36984 ft | 560 kts | 23° |
| 2026-05-09 01:38 | 36.91286 | -83.50450 | 36981 ft | 559 kts | 23° |
| 2026-05-09 01:38 | 36.97724 | -83.45019 | 36979 ft | 558 kts | 22° |
| 2026-05-09 01:39 | 37.04171 | -83.39595 | 36977 ft | 556 kts | 22° |
| 2026-05-09 01:39 | 37.10597 | -83.34219 | 36973 ft | 557 kts | 24° |
| 2026-05-09 01:40 | 37.17068 | -83.28794 | 36967 ft | 558 kts | 23° |
| 2026-05-09 01:40 | 37.23539 | -83.23357 | 36970 ft | 558 kts | 23° |
| 2026-05-09 01:41 | 37.29972 | -83.17941 | 36971 ft | 558 kts | 23° |
| 2026-05-09 01:41 | 37.36419 | -83.12500 | 36977 ft | 558 kts | 23° |
| 2026-05-09 01:42 | 37.42851 | -83.07058 | 36977 ft | 553 kts | 23° |
| 2026-05-09 01:42 | 37.49192 | -83.01681 | 36975 ft | 548 kts | 23° |
| 2026-05-09 01:43 | 37.55508 | -82.96318 | 36972 ft | 546 kts | 23° |
| 2026-05-09 01:43 | 37.61781 | -82.90983 | 36966 ft | 547 kts | 23° |
| 2026-05-09 01:44 | 37.68064 | -82.85626 | 36957 ft | 545 kts | 23° |
| 2026-05-09 01:44 | 37.74337 | -82.80266 | 36958 ft | 544 kts | 23° |
| 2026-05-09 01:45 | 37.80611 | -82.74896 | 36959 ft | 545 kts | 23° |
| 2026-05-09 01:45 | 37.86863 | -82.69534 | 36959 ft | 546 kts | 23° |
| 2026-05-09 01:46 | 37.93160 | -82.64122 | 36955 ft | 547 kts | 23° |
| 2026-05-09 01:46 | 37.99430 | -82.58718 | 36942 ft | 546 kts | 22° |
| 2026-05-09 01:47 | 38.05677 | -82.53323 | 36941 ft | 544 kts | 23° |
| 2026-05-09 01:47 | 38.11921 | -82.47920 | 36940 ft | 543 kts | 23° |
| 2026-05-09 01:48 | 38.18185 | -82.42491 | 36619 ft | 543 kts | 23° |
| 2026-05-09 01:48 | 38.21272 | -82.39805 | 36240 ft | 536 kts | 23° |
| 2026-05-09 01:48 | 38.24343 | -82.37131 | 35875 ft | 533 kts | 23° |
| 2026-05-09 01:49 | 38.27412 | -82.34460 | 35456 ft | 531 kts | 24° |
| 2026-05-09 01:49 | 38.30479 | -82.31788 | 34962 ft | 530 kts | 24° |
| 2026-05-09 01:49 | 38.33488 | -82.29164 | 34445 ft | 530 kts | 24° |
| 2026-05-09 01:49 | 38.36515 | -82.26524 | 33876 ft | 529 kts | 24° |
| 2026-05-09 01:50 | 38.39602 | -82.23946 | 33325 ft | 523 kts | 20° |
| 2026-05-09 01:50 | 38.42759 | -82.21822 | 32751 ft | 510 kts | 14° |
| 2026-05-09 01:50 | 38.45995 | -82.20161 | 32183 ft | 493 kts | 7° |
| 2026-05-09 01:50 | 38.49249 | -82.18958 | 31607 ft | 476 kts | 2° |
| 2026-05-09 01:51 | 38.52427 | -82.18206 | 31046 ft | 460 kts | 356° |
| 2026-05-09 01:51 | 38.55586 | -82.17857 | 30459 ft | 445 kts | 351° |
| 2026-05-09 01:51 | 38.58615 | -82.17901 | 29890 ft | 430 kts | 346° |
| 2026-05-09 01:51 | 38.61523 | -82.18296 | 29294 ft | 418 kts | 342° |
| 2026-05-09 01:52 | 38.64359 | -82.18823 | 28687 ft | 411 kts | 341° |
| 2026-05-09 01:52 | 38.67185 | -82.19348 | 28080 ft | 406 kts | 341° |
| 2026-05-09 01:52 | 38.69978 | -82.19868 | 27484 ft | 403 kts | 342° |
| 2026-05-09 01:52 | 38.72753 | -82.20387 | 26875 ft | 401 kts | 342° |
| 2026-05-09 01:53 | 38.75486 | -82.20898 | 26247 ft | 396 kts | 342° |
| 2026-05-09 01:53 | 38.78182 | -82.21401 | 25629 ft | 391 kts | 343° |
| 2026-05-09 01:53 | 38.80883 | -82.21905 | 24997 ft | 387 kts | 343° |
| 2026-05-09 01:53 | 38.83534 | -82.22403 | 24372 ft | 383 kts | 343° |
| 2026-05-09 01:54 | 38.86133 | -82.22890 | 23750 ft | 379 kts | 343° |
| 2026-05-09 01:54 | 38.88730 | -82.23379 | 23127 ft | 375 kts | 343° |
| 2026-05-09 01:54 | 38.91307 | -82.23863 | 22508 ft | 372 kts | 343° |
| 2026-05-09 01:54 | 38.93863 | -82.24345 | 21876 ft | 369 kts | 344° |
| 2026-05-09 01:55 | 38.96373 | -82.24818 | 21254 ft | 367 kts | 344° |
| 2026-05-09 01:55 | 38.98902 | -82.25296 | 20624 ft | 364 kts | 344° |
| 2026-05-09 01:55 | 39.01400 | -82.25768 | 19999 ft | 362 kts | 344° |
| 2026-05-09 01:55 | 39.03850 | -82.26231 | 19375 ft | 358 kts | 345° |
| 2026-05-09 01:56 | 39.06323 | -82.26698 | 18742 ft | 355 kts | 345° |
| 2026-05-09 01:56 | 39.08739 | -82.27156 | 18120 ft | 353 kts | 345° |
| 2026-05-09 01:56 | 39.11180 | -82.27618 | 17497 ft | 350 kts | 345° |
| 2026-05-09 01:56 | 39.13592 | -82.28075 | 16878 ft | 347 kts | 345° |
| 2026-05-09 01:57 | 39.15975 | -82.28528 | 16237 ft | 344 kts | 346° |
| 2026-05-09 01:57 | 39.18326 | -82.28973 | 15618 ft | 340 kts | 346° |
| 2026-05-09 01:57 | 39.20655 | -82.29416 | 14999 ft | 338 kts | 346° |
| 2026-05-09 01:57 | 39.22968 | -82.29856 | 14415 ft | 334 kts | 346° |
| 2026-05-09 01:58 | 39.25246 | -82.30289 | 14043 ft | 331 kts | 346° |
| 2026-05-09 01:58 | 39.27512 | -82.30721 | 13656 ft | 331 kts | 346° |
| 2026-05-09 01:58 | 39.29810 | -82.31159 | 13296 ft | 330 kts | 346° |
| 2026-05-09 01:58 | 39.32061 | -82.31589 | 12921 ft | 329 kts | 346° |
| 2026-05-09 01:59 | 39.34349 | -82.32025 | 12562 ft | 328 kts | 346° |
| 2026-05-09 01:59 | 39.36590 | -82.32453 | 12189 ft | 326 kts | 346° |
| 2026-05-09 01:59 | 39.38837 | -82.32881 | 11816 ft | 321 kts | 346° |
| 2026-05-09 01:59 | 39.41018 | -82.33296 | 11465 ft | 313 kts | 346° |
| 2026-05-09 02:00 | 39.43146 | -82.33700 | 11125 ft | 306 kts | 346° |
| 2026-05-09 02:00 | 39.45226 | -82.34096 | 10792 ft | 299 kts | 346° |
| 2026-05-09 02:00 | 39.47259 | -82.34483 | 10461 ft | 291 kts | 346° |
| 2026-05-09 02:00 | 39.49234 | -82.34871 | 10150 ft | 284 kts | 344° |
| 2026-05-09 02:01 | 39.51025 | -82.35780 | 9839 ft | 270 kts | 322° |
| 2026-05-09 02:01 | 39.52529 | -82.37188 | 9667 ft | 268 kts | 319° |
| 2026-05-09 02:01 | 39.54038 | -82.38616 | 9488 ft | 271 kts | 319° |
| 2026-05-09 02:01 | 39.55568 | -82.40059 | 9287 ft | 269 kts | 319° |
| 2026-05-09 02:02 | 39.57085 | -82.41490 | 9094 ft | 270 kts | 319° |
| 2026-05-09 02:02 | 39.58599 | -82.42921 | 8898 ft | 269 kts | 319° |
| 2026-05-09 02:02 | 39.60110 | -82.44349 | 8702 ft | 270 kts | 319° |
| 2026-05-09 02:02 | 39.61626 | -82.45782 | 8501 ft | 270 kts | 319° |
| 2026-05-09 02:03 | 39.63146 | -82.47221 | 8304 ft | 270 kts | 319° |
| 2026-05-09 02:03 | 39.64669 | -82.48662 | 8105 ft | 270 kts | 319° |
| 2026-05-09 02:03 | 39.66177 | -82.50091 | 7904 ft | 270 kts | 319° |
| 2026-05-09 02:03 | 39.67699 | -82.51534 | 7711 ft | 270 kts | 318° |
| 2026-05-09 02:04 | 39.69220 | -82.52976 | 7513 ft | 270 kts | 319° |
| 2026-05-09 02:04 | 39.70726 | -82.54406 | 7314 ft | 270 kts | 318° |
| 2026-05-09 02:04 | 39.72264 | -82.55795 | 7114 ft | 269 kts | 321° |
| 2026-05-09 02:04 | 39.73824 | -82.57166 | 6932 ft | 270 kts | 321° |
| 2026-05-09 02:05 | 39.75398 | -82.58549 | 6725 ft | 270 kts | 320° |
| 2026-05-09 02:05 | 39.76943 | -82.59907 | 6535 ft | 268 kts | 321° |
| 2026-05-09 02:05 | 39.78494 | -82.61269 | 6335 ft | 264 kts | 320° |
| 2026-05-09 02:05 | 39.80068 | -82.62447 | 6141 ft | 261 kts | 331° |
| 2026-05-09 02:06 | 39.81725 | -82.63341 | 5852 ft | 252 kts | 333° |
| 2026-05-09 02:06 | 39.83344 | -82.64160 | 5488 ft | 247 kts | 333° |
| 2026-05-09 02:06 | 39.84915 | -82.64957 | 5111 ft | 242 kts | 333° |
| 2026-05-09 02:07 | 39.88021 | -82.66530 | 4356 ft | 235 kts | 333° |
| 2026-05-09 02:07 | 39.89526 | -82.67309 | 4057 ft | 229 kts | 332° |
| 2026-05-09 02:07 | 39.90991 | -82.68062 | 3824 ft | 226 kts | 332° |
| 2026-05-09 02:07 | 39.92448 | -82.68814 | 3487 ft | 225 kts | 332° |
| 2026-05-09 02:08 | 39.93908 | -82.69566 | 3157 ft | 222 kts | 332° |
| 2026-05-09 02:08 | 39.95257 | -82.70428 | 2828 ft | 214 kts | 315° |
| 2026-05-09 02:08 | 39.96233 | -82.71836 | 2537 ft | 199 kts | 303° |
| 2026-05-09 02:08 | 39.97009 | -82.73183 | 2501 ft | 174 kts | 302° |
| 2026-05-09 02:09 | 39.97717 | -82.74414 | 2522 ft | 165 kts | 302° |
| 2026-05-09 02:09 | 39.98389 | -82.75594 | 2500 ft | 158 kts | 300° |
| 2026-05-09 02:09 | 39.98700 | -82.76898 | 2357 ft | 147 kts | 270° |
| 2026-05-09 02:09 | 39.98682 | -82.78169 | 2214 ft | 134 kts | 268° |
| 2026-05-09 02:10 | 39.98706 | -82.79337 | 2050 ft | 124 kts | 272° |
| 2026-05-09 02:10 | 39.98764 | -82.80435 | 1871 ft | 120 kts | 274° |
| 2026-05-09 02:10 | 39.98827 | -82.81524 | 1706 ft | 118 kts | 274° |
| 2026-05-09 02:10 | 39.98889 | -82.82593 | 1556 ft | 119 kts | 274° |
| 2026-05-09 02:11 | 39.98951 | -82.83665 | 1401 ft | 119 kts | 275° |
| 2026-05-09 02:11 | 39.99014 | -82.84753 | 1243 ft | 121 kts | 275° |
| 2026-05-09 02:11 | 39.99071 | -82.85850 | 1071 ft | 122 kts | 275° |
| 2026-05-09 02:11 | 39.99141 | -82.86958 | 910 ft | 123 kts | 274° |
| 2026-05-09 02:12 | 39.99202 | -82.88040 | 815 ft | 111 kts | 275° |
| 2026-05-09 02:12 | 39.99249 | -82.88834 | 814 ft | 59 kts | 275° |
| 2026-05-09 02:12 | 39.99248 | -82.89088 | 814 ft | 12 kts | 242° |
| 2026-05-09 02:12 | 39.99184 | -82.89126 | 814 ft | 2 kts | 178° |
| 2026-05-09 02:13 | 39.99183 | -82.89126 | 814 ft | 0 kts | 178° |
| 2026-05-09 02:13 | 39.99170 | -82.89125 | 814 ft | 12 kts | 178° |
| 2026-05-09 02:14 | 39.99151 | -82.89208 | 813 ft | 10 kts | 236° |
| 2026-05-09 02:14 | 39.99086 | -82.89228 | 813 ft | 10 kts | 179° |
| 2026-05-09 02:14 | 39.99057 | -82.89274 | 813 ft | 0 kts | 272° |